createdAt,value
2023-03-10T00:01:24.999Z,2.03
2023-03-10T00:03:53.334Z,2.22
2023-03-10T00:06:22.922Z,2.65
2023-03-10T00:08:50.837Z,1.95
2023-03-10T00:11:18.171Z,2.67
2023-03-10T00:13:45.637Z,2.40
2023-03-10T00:16:25.383Z,2.67
2023-03-10T00:18:53.136Z,2.08
2023-03-10T00:21:26.044Z,2.10
2023-03-10T00:23:53.686Z,2.08
2023-03-10T00:26:21.901Z,2.33
2023-03-10T00:28:49.533Z,3.13
2023-03-10T00:31:25.296Z,2.20
2023-03-10T00:33:52.481Z,3.13
2023-03-10T00:36:25.563Z,3.33
2023-03-10T00:38:53.855Z,3.25
2023-03-10T00:41:27.081Z,2.72
2023-03-10T00:43:54.183Z,3.95
2023-03-10T00:46:21.132Z,3.72
2023-03-10T00:48:48.221Z,3.38
2023-03-10T00:51:15.204Z,2.85
2023-03-10T00:53:42.567Z,2.97
2023-03-10T00:56:17.801Z,2.83
2023-03-10T00:58:46.211Z,2.42
2023-03-10T01:01:18.973Z,2.90
2023-03-10T01:03:46.478Z,2.60
2023-03-10T01:06:14.196Z,3.10
2023-03-10T01:08:41.336Z,3.55
2023-03-10T01:11:10.417Z,3.97
2023-03-10T01:13:39.912Z,3.67
2023-03-10T01:16:08.194Z,3.72
2023-03-10T01:18:35.346Z,4.15
2023-03-10T01:21:02.235Z,4.07
2023-03-10T01:23:28.958Z,4.93
2023-03-10T01:25:56.123Z,5.25
2023-03-10T01:28:23.435Z,5.85
2023-03-10T01:30:50.984Z,5.05
2023-03-10T01:33:18.282Z,6.53
2023-03-10T01:35:45.646Z,6.55
2023-03-10T01:38:13.318Z,6.25
2023-03-10T01:40:41.061Z,7.45
2023-03-10T01:43:20.246Z,6.03
2023-03-10T01:45:47.361Z,6.40
2023-03-10T01:48:16.589Z,7.00
2023-03-10T01:50:46.921Z,6.60
2023-03-10T01:53:16.404Z,5.10
2023-03-10T01:55:50.540Z,5.70
2023-03-10T01:58:20.998Z,5.80
2023-03-10T02:00:48.652Z,5.90
2023-03-10T02:03:18.044Z,6.38
2023-03-10T02:05:58.761Z,4.53
2023-03-10T02:08:29.932Z,4.60
2023-03-10T02:10:58.316Z,5.70
2023-03-10T02:13:25.405Z,4.75
2023-03-10T02:15:52.376Z,3.85
2023-03-10T02:18:21.792Z,3.95
2023-03-10T02:20:54.694Z,4.30
2023-03-10T02:24:00.339Z,4.15
2023-03-10T02:26:40.288Z,3.42
2023-03-10T02:29:12.606Z,3.72
2023-03-10T02:31:40.216Z,3.38
2023-03-10T02:34:08.139Z,3.13
2023-03-10T02:36:35.150Z,3.65
2023-03-10T02:39:02.059Z,4.15
2023-03-10T02:41:39.219Z,3.30
2023-03-10T02:44:10.052Z,3.50
2023-03-10T02:46:37.172Z,4.10
2023-03-10T02:49:06.402Z,3.58
2023-03-10T02:51:35.998Z,3.30
2023-03-10T02:54:03.571Z,4.40
2023-03-10T02:56:32.584Z,4.20
2023-03-10T02:58:59.820Z,5.95
2023-03-10T03:01:27.064Z,6.07
2023-03-10T03:03:54.496Z,5.50
2023-03-10T03:06:21.362Z,5.50
2023-03-10T03:08:48.677Z,5.82
2023-03-10T03:11:16.276Z,5.90
2023-03-10T03:13:43.151Z,8.63
2023-03-10T03:16:10.580Z,5.63
2023-03-10T03:18:37.561Z,7.68
2023-03-10T03:21:11.207Z,5.60
2023-03-10T03:23:39.708Z,3.63
2023-03-10T03:26:15.254Z,5.20
2023-03-10T03:28:42.843Z,4.97
2023-03-10T03:31:18.160Z,5.10
2023-03-10T03:33:45.858Z,4.95
2023-03-10T03:36:13.469Z,4.80
2023-03-10T03:38:40.542Z,4.80
2023-03-10T03:41:08.345Z,4.45
2023-03-10T03:43:35.485Z,4.45
2023-03-10T03:46:02.551Z,4.20
2023-03-10T03:48:29.447Z,4.35
2023-03-10T03:50:56.271Z,3.80
2023-03-10T03:53:23.233Z,4.75
2023-03-10T03:55:51.349Z,4.70
2023-03-10T03:58:18.561Z,4.03
2023-03-10T04:00:45.550Z,5.05
2023-03-10T04:03:12.317Z,4.70
2023-03-10T04:05:39.710Z,5.10
2023-03-10T04:08:06.760Z,4.15
2023-03-10T04:10:33.754Z,3.72
2023-03-10T04:13:00.573Z,3.80
2023-03-10T04:15:27.494Z,3.28
2023-03-10T04:17:54.450Z,3.60
2023-03-10T04:20:23.808Z,2.90
2023-03-10T04:22:54.168Z,2.85
2023-03-10T04:25:21.048Z,3.40
2023-03-10T04:27:48.063Z,3.33
2023-03-10T04:30:15.521Z,3.70
2023-03-10T04:32:42.620Z,4.15
2023-03-10T04:35:12.898Z,3.65
2023-03-10T04:37:40.325Z,4.43
2023-03-10T04:40:09.623Z,3.83
2023-03-10T04:42:36.645Z,4.18
2023-03-10T04:45:04.174Z,4.25
2023-03-10T04:47:30.833Z,3.30
2023-03-10T04:49:57.804Z,3.72
2023-03-10T04:52:24.850Z,4.28
2023-03-10T04:54:51.844Z,4.07
2023-03-10T04:57:18.829Z,4.15
2023-03-10T04:59:45.782Z,4.35
2023-03-10T05:02:12.767Z,4.63
2023-03-10T05:04:39.960Z,4.38
2023-03-10T05:07:06.894Z,4.78
2023-03-10T05:09:38.174Z,5.03
2023-03-10T05:12:06.774Z,4.25
2023-03-10T05:14:33.786Z,4.93
2023-03-10T05:17:00.662Z,4.18
2023-03-10T05:19:29.002Z,4.60
2023-03-10T05:21:55.980Z,3.72
2023-03-10T05:24:23.090Z,4.53
2023-03-10T05:26:49.935Z,4.18
2023-03-10T05:29:17.245Z,4.05
2023-03-10T05:31:44.340Z,4.47
2023-03-10T05:34:11.333Z,3.95
2023-03-10T05:36:38.265Z,3.63
2023-03-10T05:39:06.213Z,3.15
2023-03-10T05:41:33.655Z,3.33
2023-03-10T05:44:00.430Z,3.70
2023-03-10T05:46:27.928Z,3.75
2023-03-10T05:48:56.607Z,3.35
2023-03-10T05:51:23.988Z,3.97
2023-03-10T05:53:50.800Z,3.83
2023-03-10T05:56:19.390Z,3.90
2023-03-10T05:58:47.399Z,3.75
2023-03-10T06:01:14.773Z,4.28
2023-03-10T06:03:41.875Z,3.40
2023-03-10T06:06:08.940Z,3.10
2023-03-10T06:08:36.263Z,2.78
2023-03-10T06:11:03.721Z,2.53
2023-03-10T06:13:31.313Z,2.50
2023-03-10T06:16:01.022Z,2.65
2023-03-10T06:18:28.690Z,1.98
2023-03-10T06:20:55.901Z,2.13
2023-03-10T06:23:24.536Z,2.13
2023-03-10T06:25:59.615Z,2.10
2023-03-10T06:28:33.221Z,2.45
2023-03-10T06:31:02.049Z,2.30
2023-03-10T06:33:30.020Z,2.85
2023-03-10T06:35:57.073Z,2.38
2023-03-10T06:38:24.990Z,2.70
2023-03-10T06:40:52.061Z,2.40
2023-03-10T06:43:19.598Z,2.60
2023-03-10T06:45:47.311Z,2.28
2023-03-10T06:48:14.824Z,2.50
2023-03-10T06:50:48.214Z,1.88
2023-03-10T06:53:17.070Z,1.92
2023-03-10T06:55:43.916Z,1.75
2023-03-10T06:58:11.026Z,1.70
2023-03-10T07:00:39.834Z,1.70
2023-03-10T07:03:07.024Z,2.08
2023-03-10T07:05:34.002Z,1.90
2023-03-10T07:08:00.994Z,2.05
2023-03-10T07:10:28.204Z,1.50
2023-03-10T07:12:59.107Z,1.88
2023-03-10T07:15:27.033Z,1.48
2023-03-10T07:17:56.352Z,1.90
2023-03-10T07:20:24.632Z,1.67
2023-03-10T07:22:51.624Z,1.67
2023-03-10T07:25:18.754Z,1.65
2023-03-10T07:27:45.813Z,1.40
2023-03-10T07:30:12.966Z,1.40
2023-03-10T07:32:40.081Z,1.70
2023-03-10T07:35:07.797Z,1.50
2023-03-10T07:37:38.206Z,1.38
2023-03-10T07:40:07.566Z,1.50
2023-03-10T07:42:34.570Z,1.55
2023-03-10T07:45:01.486Z,1.60
2023-03-10T07:47:28.487Z,1.88
2023-03-10T07:49:55.380Z,1.33
2023-03-10T07:52:22.657Z,1.58
2023-03-10T07:54:49.836Z,1.83
2023-03-10T07:57:16.862Z,1.92
2023-03-10T07:59:43.957Z,1.60
2023-03-10T08:02:14.657Z,1.27
2023-03-10T08:04:41.668Z,1.83
2023-03-10T08:07:09.393Z,1.50
2023-03-10T08:09:36.985Z,1.17
2023-03-10T08:12:04.484Z,1.85
2023-03-10T08:14:31.838Z,1.35
2023-03-10T08:16:59.201Z,1.70
2023-03-10T08:19:27.969Z,1.90
2023-03-10T08:21:56.359Z,2.30
2023-03-10T08:24:24.196Z,1.90
2023-03-10T08:26:51.375Z,1.77
2023-03-10T08:29:18.354Z,1.95
2023-03-10T08:31:45.665Z,1.55
2023-03-10T08:34:14.281Z,1.60
2023-03-10T08:36:42.318Z,1.23
2023-03-10T08:39:10.210Z,1.30
2023-03-10T08:41:45.584Z,1.70
2023-03-10T08:44:15.665Z,1.65
2023-03-10T08:46:46.592Z,1.58
2023-03-10T08:49:15.642Z,1.70
2023-03-10T08:51:43.243Z,1.50
2023-03-10T08:54:15.305Z,1.67
2023-03-10T08:56:42.653Z,1.65
2023-03-10T08:59:09.654Z,1.42
2023-03-10T09:01:37.658Z,1.67
2023-03-10T09:04:06.224Z,1.73
2023-03-10T09:06:33.946Z,1.95
2023-03-10T09:09:00.663Z,1.70
2023-03-10T09:11:31.842Z,1.50
2023-03-10T09:14:00.561Z,1.65
2023-03-10T09:16:28.982Z,1.67
2023-03-10T09:18:59.943Z,1.08
2023-03-10T09:21:28.724Z,1.25
2023-03-10T09:23:56.141Z,1.45
2023-03-10T09:26:23.191Z,1.35
2023-03-10T09:28:51.227Z,1.50
2023-03-10T09:31:21.033Z,1.50
2023-03-10T09:33:48.982Z,1.48
2023-03-10T09:36:16.820Z,1.30
2023-03-10T09:38:43.848Z,1.70
2023-03-10T09:41:20.275Z,1.23
2023-03-10T09:43:56.000Z,1.63
2023-03-10T09:46:25.506Z,1.50
2023-03-10T09:49:37.382Z,1.65
2023-03-10T09:52:29.676Z,1.27
2023-03-10T09:55:28.290Z,2.00
2023-03-10T09:57:57.052Z,1.40
2023-03-10T10:00:35.735Z,1.83
2023-03-10T10:03:18.085Z,1.40
2023-03-10T10:05:46.972Z,1.80
2023-03-10T10:08:58.267Z,1.50
2023-03-10T10:11:31.358Z,1.77
2023-03-10T10:14:29.308Z,1.63
2023-03-10T10:17:22.401Z,1.90
2023-03-10T10:19:50.482Z,1.95
2023-03-10T10:22:27.884Z,1.58
2023-03-10T10:25:10.173Z,1.90
2023-03-10T10:27:38.695Z,1.88
2023-03-10T10:30:33.500Z,1.60
2023-03-10T10:33:03.467Z,1.35
2023-03-10T10:35:52.046Z,1.50
2023-03-10T10:38:27.382Z,1.98
2023-03-10T10:41:03.915Z,2.25
2023-03-10T10:43:40.977Z,2.03
2023-03-10T10:46:09.425Z,2.05
2023-03-10T10:48:40.519Z,2.30
2023-03-10T10:51:30.015Z,1.60
2023-03-10T10:54:02.718Z,2.65
2023-03-10T10:56:30.209Z,1.92
2023-03-10T10:59:11.931Z,2.20
2023-03-10T11:01:52.650Z,1.85
2023-03-10T11:04:20.632Z,2.30
2023-03-10T11:06:48.260Z,1.95
2023-03-10T11:09:19.085Z,2.00
2023-03-10T11:12:10.410Z,2.28
2023-03-10T11:14:37.371Z,1.90
2023-03-10T11:17:16.966Z,2.50
2023-03-10T11:20:25.748Z,2.10
2023-03-10T11:23:18.268Z,2.10
2023-03-10T11:26:04.175Z,1.75
2023-03-10T11:28:41.039Z,2.03
2023-03-10T11:31:29.333Z,2.40
2023-03-10T11:34:05.302Z,2.30
2023-03-10T11:37:07.120Z,3.58
2023-03-10T11:39:46.050Z,2.85
2023-03-10T11:42:36.413Z,2.60
2023-03-10T11:45:40.966Z,2.53
2023-03-10T11:48:33.828Z,2.10
2023-03-10T11:51:05.569Z,2.55
2023-03-10T11:53:47.925Z,2.30
2023-03-10T11:56:17.465Z,2.80
2023-03-10T11:59:06.090Z,2.53
2023-03-10T12:01:46.353Z,2.17
2023-03-10T12:04:16.639Z,2.50
2023-03-10T12:06:52.804Z,2.75
2023-03-10T12:09:43.719Z,2.35
2023-03-10T12:12:25.991Z,1.90
2023-03-10T12:14:55.486Z,2.63
2023-03-10T12:17:22.786Z,2.47
2023-03-10T12:20:12.327Z,2.13
2023-03-10T12:22:46.990Z,2.22
2023-03-10T12:25:33.435Z,2.00
2023-03-10T12:28:15.181Z,2.22
2023-03-10T12:31:06.781Z,2.63
2023-03-10T12:33:43.060Z,1.92
2023-03-10T12:36:16.119Z,2.17
2023-03-10T12:38:46.963Z,1.85
2023-03-10T12:41:27.204Z,2.10
2023-03-10T12:44:25.719Z,2.20
2023-03-10T12:47:08.036Z,1.60
2023-03-10T12:49:39.183Z,2.30
2023-03-10T12:52:48.268Z,2.15
2023-03-10T12:55:26.834Z,2.30
2023-03-10T12:58:00.569Z,2.33
2023-03-10T13:00:48.800Z,2.25
2023-03-10T13:03:26.449Z,2.20
2023-03-10T13:06:01.047Z,1.90
2023-03-10T13:08:49.978Z,2.13
2023-03-10T13:11:25.441Z,1.95
2023-03-10T13:13:58.656Z,2.30
2023-03-10T13:16:25.838Z,2.05
2023-03-10T13:18:54.480Z,2.22
2023-03-10T13:21:32.321Z,2.00
2023-03-10T13:24:00.749Z,2.10
2023-03-10T13:26:27.708Z,2.35
2023-03-10T13:29:01.420Z,2.55
2023-03-10T13:31:30.580Z,2.10
2023-03-10T13:34:12.032Z,2.13
2023-03-10T13:36:40.244Z,2.30
2023-03-10T13:39:25.601Z,2.30
2023-03-10T13:41:56.986Z,2.33
2023-03-10T13:44:34.957Z,1.90
2023-03-10T13:47:04.906Z,2.22
2023-03-10T13:49:35.314Z,1.83
2023-03-10T13:52:08.490Z,1.92
2023-03-10T13:54:37.063Z,2.10
2023-03-10T13:57:16.125Z,1.65
2023-03-10T13:59:43.168Z,1.85
2023-03-10T14:02:20.873Z,1.70
2023-03-10T14:04:50.835Z,1.30
2023-03-10T14:07:23.648Z,1.73
2023-03-10T14:10:06.034Z,1.20
2023-03-10T14:12:48.246Z,1.25
2023-03-10T14:15:15.045Z,1.42
2023-03-10T14:17:44.185Z,1.30
2023-03-10T14:20:13.645Z,1.10
2023-03-10T14:22:43.542Z,1.40
2023-03-10T14:25:12.773Z,1.40
2023-03-10T14:27:42.996Z,1.67
2023-03-10T14:30:20.648Z,1.60
2023-03-10T14:32:47.872Z,1.90
2023-03-10T14:35:16.586Z,1.48
2023-03-10T14:37:43.535Z,1.75
2023-03-10T14:40:11.009Z,1.30
2023-03-10T14:42:41.829Z,1.98
2023-03-10T14:45:18.717Z,1.70
2023-03-10T14:47:45.652Z,1.98
2023-03-10T14:50:18.490Z,2.10
2023-03-10T14:52:45.544Z,2.17
2023-03-10T14:55:12.578Z,1.98
2023-03-10T14:57:41.167Z,1.88
2023-03-10T15:00:13.788Z,2.00
2023-03-10T15:02:41.327Z,2.40
2023-03-10T15:05:15.120Z,2.30
2023-03-10T15:07:42.207Z,2.80
2023-03-10T15:10:11.465Z,3.63
2023-03-10T15:12:40.648Z,3.15
2023-03-10T15:15:17.396Z,4.03
2023-03-10T15:17:44.985Z,4.07
2023-03-10T15:20:16.881Z,2.80
2023-03-10T15:22:44.991Z,2.53
2023-03-10T15:25:13.795Z,2.90
2023-03-10T15:27:41.029Z,2.50
2023-03-10T15:30:17.009Z,2.80
2023-03-10T15:32:44.089Z,4.28
2023-03-10T15:35:12.484Z,3.20
2023-03-10T15:37:39.642Z,3.78
2023-03-10T15:40:07.274Z,3.33
2023-03-10T15:42:33.935Z,2.50
2023-03-10T15:45:04.617Z,3.10
2023-03-10T15:47:32.548Z,2.60
2023-03-10T15:49:59.566Z,4.35
2023-03-10T15:52:26.481Z,2.80
2023-03-10T15:54:53.306Z,2.55
2023-03-10T15:57:21.114Z,2.75
2023-03-10T15:59:48.089Z,3.00
2023-03-10T16:02:15.549Z,3.50
2023-03-10T16:04:44.589Z,2.70
2023-03-10T16:07:12.253Z,2.55
2023-03-10T16:09:39.377Z,2.88
2023-03-10T16:12:06.955Z,3.80
2023-03-10T16:14:33.910Z,3.70
2023-03-10T16:17:00.909Z,3.50
2023-03-10T16:19:28.627Z,4.03
2023-03-10T16:21:55.390Z,3.75
2023-03-10T16:24:22.888Z,3.60
2023-03-10T16:26:49.541Z,3.70
2023-03-10T16:29:17.352Z,3.60
2023-03-10T16:31:44.392Z,2.95
2023-03-10T16:34:11.290Z,3.15
2023-03-10T16:36:38.270Z,3.08
2023-03-10T16:39:10.227Z,3.47
2023-03-10T16:41:37.291Z,2.88
2023-03-10T16:44:05.817Z,2.67
2023-03-10T16:46:33.469Z,2.78
2023-03-10T16:49:01.886Z,3.10
2023-03-10T16:51:42.257Z,3.17
2023-03-10T16:54:18.101Z,3.75
2023-03-10T16:56:48.078Z,3.17
2023-03-10T16:59:18.660Z,3.13
2023-03-10T17:01:47.309Z,2.78
2023-03-10T17:04:14.419Z,3.05
2023-03-10T17:06:41.995Z,3.20
2023-03-10T17:09:10.678Z,4.00
2023-03-10T17:11:40.746Z,3.38
2023-03-10T17:14:11.890Z,3.50
2023-03-10T17:16:38.961Z,9.70
2023-03-10T17:19:08.688Z,5.15
2023-03-10T17:21:39.550Z,3.83
2023-03-10T17:24:08.325Z,3.60
2023-03-10T17:26:35.910Z,3.28
2023-03-10T17:29:03.674Z,3.45
2023-03-10T17:31:31.949Z,3.38
2023-03-10T17:34:04.219Z,2.92
2023-03-10T17:36:31.207Z,3.10
2023-03-10T17:39:00.431Z,2.70
2023-03-10T17:41:29.119Z,6.18
2023-03-10T17:43:56.313Z,7.47
2023-03-10T17:46:26.629Z,4.50
2023-03-10T17:48:54.216Z,3.28
2023-03-10T17:51:24.237Z,3.58
2023-03-10T17:53:53.471Z,3.35
2023-03-10T17:56:22.080Z,6.13
2023-03-10T17:58:50.105Z,3.45
2023-03-10T18:01:20.248Z,3.67
2023-03-10T18:03:48.580Z,2.50
2023-03-10T18:06:21.000Z,3.20
2023-03-10T18:08:48.423Z,4.47
2023-03-10T18:11:16.633Z,2.55
2023-03-10T18:13:44.109Z,2.80
2023-03-10T18:16:19.573Z,2.90
2023-03-10T18:18:47.166Z,3.40
2023-03-10T18:21:15.743Z,3.65
2023-03-10T18:23:43.061Z,3.22
2023-03-10T18:26:14.765Z,3.45
2023-03-10T18:28:41.768Z,3.55
2023-03-10T18:31:16.127Z,4.07
2023-03-10T18:33:44.892Z,3.28
2023-03-10T18:36:14.962Z,3.78
2023-03-10T18:38:42.065Z,3.50
2023-03-10T18:41:09.268Z,4.05
2023-03-10T18:43:36.356Z,4.35
2023-03-10T18:46:03.557Z,5.15
2023-03-10T18:48:30.449Z,3.45
2023-03-10T18:50:59.204Z,3.47
2023-03-10T18:53:27.457Z,3.40
2023-03-10T18:55:55.346Z,4.40
2023-03-10T18:58:22.759Z,4.60
2023-03-10T19:00:50.393Z,3.70
2023-03-10T19:03:18.546Z,3.95
2023-03-10T19:05:46.625Z,5.13
2023-03-10T19:08:13.581Z,4.38
2023-03-10T19:10:40.587Z,4.38
2023-03-10T19:13:08.757Z,4.75
2023-03-10T19:15:37.370Z,4.63
2023-03-10T19:18:04.726Z,4.20
2023-03-10T19:20:31.624Z,3.85
2023-03-10T19:22:58.481Z,4.57
2023-03-10T19:25:25.447Z,3.85
2023-03-10T19:27:52.475Z,3.95
2023-03-10T19:30:21.902Z,4.40
2023-03-10T19:32:49.289Z,4.03
2023-03-10T19:35:16.828Z,3.78
2023-03-10T19:37:43.906Z,4.20
2023-03-10T19:40:17.364Z,3.88
2023-03-10T19:42:44.922Z,4.15
2023-03-10T19:45:15.025Z,4.07
2023-03-10T19:47:42.938Z,3.92
2023-03-10T19:50:12.459Z,4.38
2023-03-10T19:52:47.030Z,3.85
2023-03-10T19:57:48.804Z,3.85
2023-03-10T20:00:19.232Z,3.58
2023-03-10T20:02:46.812Z,4.22
2023-03-10T20:05:15.160Z,5.07
2023-03-10T20:07:44.454Z,4.30
2023-03-10T20:10:11.884Z,4.25
2023-03-10T20:12:39.240Z,4.30
2023-03-10T20:15:06.977Z,4.28
2023-03-10T20:17:34.002Z,5.00
2023-03-10T20:20:00.906Z,4.22
2023-03-10T20:22:27.626Z,5.05
2023-03-10T20:24:54.662Z,4.93
2023-03-10T20:27:23.174Z,5.38
2023-03-10T20:29:50.182Z,6.18
2023-03-10T20:32:17.191Z,3.70
2023-03-10T20:34:44.108Z,3.15
2023-03-10T20:37:11.001Z,3.08
2023-03-10T20:39:38.028Z,3.22
2023-03-10T20:42:05.109Z,3.13
2023-03-10T20:44:31.963Z,3.47
2023-03-10T20:46:59.745Z,3.05
2023-03-10T20:49:26.644Z,3.00
2023-03-10T20:51:53.588Z,2.13
2023-03-10T20:54:20.658Z,2.80
2023-03-10T20:56:47.455Z,2.80
2023-03-10T20:59:14.814Z,3.47
2023-03-10T21:01:42.726Z,2.90
2023-03-10T21:04:09.899Z,2.92
2023-03-10T21:06:37.684Z,2.95
2023-03-10T21:09:06.186Z,3.30
2023-03-10T21:11:34.646Z,3.40
2023-03-10T21:14:01.586Z,3.45
2023-03-10T21:16:28.956Z,5.53
2023-03-10T21:18:55.948Z,4.10
2023-03-10T21:21:22.878Z,4.60
2023-03-10T21:23:50.420Z,6.05
2023-03-10T21:26:20.985Z,6.20
2023-03-10T21:28:48.948Z,5.88
2023-03-10T21:31:16.301Z,6.40
2023-03-10T21:33:43.304Z,6.13
2023-03-10T21:36:15.625Z,5.55
2023-03-10T21:38:43.311Z,4.60
2023-03-10T21:41:14.352Z,4.72
2023-03-10T21:43:41.117Z,4.50
2023-03-10T21:46:08.104Z,5.32
2023-03-10T21:48:34.843Z,6.53
2023-03-10T21:51:01.761Z,7.80
2023-03-10T21:53:30.008Z,7.75
2023-03-10T21:55:58.345Z,9.18
2023-03-10T21:58:26.139Z,10.23
2023-03-10T22:00:55.987Z,10.20
2023-03-10T22:03:23.071Z,9.35
2023-03-10T22:05:50.644Z,12.55
2023-03-10T22:08:18.063Z,11.15
2023-03-10T22:10:45.940Z,9.68
2023-03-10T22:13:13.022Z,10.60
2023-03-10T22:15:40.311Z,9.63
2023-03-10T22:18:07.378Z,9.38
2023-03-10T22:20:34.402Z,8.15
2023-03-10T22:23:01.084Z,10.93
2023-03-10T22:25:28.013Z,9.40
2023-03-10T22:27:56.301Z,10.45
2023-03-10T22:30:26.048Z,13.73
2023-03-10T22:32:53.111Z,10.00
2023-03-10T22:35:20.710Z,9.25
2023-03-10T22:37:48.409Z,9.70
2023-03-10T22:40:18.907Z,11.18
2023-03-10T22:42:46.106Z,12.70
2023-03-10T22:45:23.401Z,11.30
2023-03-10T22:47:52.465Z,11.00
2023-03-10T22:50:24.097Z,10.65
2023-03-10T22:52:50.973Z,10.23
2023-03-10T22:55:20.597Z,10.18
2023-03-10T22:57:47.431Z,12.13
2023-03-10T23:00:19.882Z,11.35
2023-03-10T23:02:48.380Z,11.35
2023-03-10T23:05:16.069Z,10.43
2023-03-10T23:07:43.799Z,11.45
2023-03-10T23:10:35.422Z,11.15
2023-03-10T23:13:04.665Z,12.15
2023-03-10T23:15:34.712Z,11.10
2023-03-10T23:18:02.288Z,11.80
2023-03-10T23:20:32.894Z,9.40
2023-03-10T23:23:01.758Z,7.93
2023-03-10T23:25:32.227Z,6.65
2023-03-10T23:27:59.982Z,5.63
2023-03-10T23:30:27.079Z,6.60
2023-03-10T23:32:54.915Z,5.70
2023-03-10T23:35:25.430Z,5.97
2023-03-10T23:37:52.494Z,5.43
2023-03-10T23:40:21.061Z,5.60
2023-03-10T23:42:48.188Z,5.32
2023-03-10T23:45:18.326Z,4.40
2023-03-10T23:47:46.115Z,5.65
2023-03-10T23:50:22.336Z,6.45
2023-03-10T23:52:49.503Z,5.45
2023-03-10T23:55:20.483Z,7.50
2023-03-10T23:57:47.486Z,7.78
